sensor_id;sensor_type;location;lat;lon;timestamp;temperature;humidity
17489;DHT22;8861;52.644;4.734;2022-07-17T00:01:13;14.70;99.90
17489;DHT22;8861;52.644;4.734;2022-07-17T00:03:40;14.60;99.90
17489;DHT22;8861;52.644;4.734;2022-07-17T00:06:09;14.60;99.90
17489;DHT22;8861;52.644;4.734;2022-07-17T00:08:35;14.50;99.90
17489;DHT22;8861;52.644;4.734;2022-07-17T00:11:03;14.40;99.90
17489;DHT22;8861;52.644;4.734;2022-07-17T00:13:30;14.40;99.90
17489;DHT22;8861;52.644;4.734;2022-07-17T00:15:57;14.40;99.90
17489;DHT22;8861;52.644;4.734;2022-07-17T00:18:24;14.40;99.90
17489;DHT22;8861;52.644;4.734;2022-07-17T00:20:50;14.30;99.90
17489;DHT22;8861;52.644;4.734;2022-07-17T00:23:19;14.30;99.90
17489;DHT22;8861;52.644;4.734;2022-07-17T00:25:46;14.30;99.90
17489;DHT22;8861;52.644;4.734;2022-07-17T00:28:13;14.30;99.90
17489;DHT22;8861;52.644;4.734;2022-07-17T00:30:40;14.30;99.90
17489;DHT22;8861;52.644;4.734;2022-07-17T00:33:07;14.30;99.90
17489;DHT22;8861;52.644;4.734;2022-07-17T00:35:34;14.30;99.90
17489;DHT22;8861;52.644;4.734;2022-07-17T00:38:01;14.30;99.90
17489;DHT22;8861;52.644;4.734;2022-07-17T00:40:29;14.30;99.90
17489;DHT22;8861;52.644;4.734;2022-07-17T00:42:56;14.20;99.90
17489;DHT22;8861;52.644;4.734;2022-07-17T00:45:23;14.20;99.90
17489;DHT22;8861;52.644;4.734;2022-07-17T00:47:53;14.20;99.90
17489;DHT22;8861;52.644;4.734;2022-07-17T00:50:21;14.20;99.90
17489;DHT22;8861;52.644;4.734;2022-07-17T00:52:48;14.20;99.90
17489;DHT22;8861;52.644;4.734;2022-07-17T00:55:16;14.20;99.90
17489;DHT22;8861;52.644;4.734;2022-07-17T00:57:46;14.10;99.90
17489;DHT22;8861;52.644;4.734;2022-07-17T01:00:14;14.10;99.90
17489;DHT22;8861;52.644;4.734;2022-07-17T01:02:46;14.10;99.90
17489;DHT22;8861;52.644;4.734;2022-07-17T01:05:14;14.10;99.90
17489;DHT22;8861;52.644;4.734;2022-07-17T01:07:41;14.10;99.90
17489;DHT22;8861;52.644;4.734;2022-07-17T01:10:09;14.00;99.90
17489;DHT22;8861;52.644;4.734;2022-07-17T01:12:36;14.00;99.90
17489;DHT22;8861;52.644;4.734;2022-07-17T01:15:05;13.90;99.90
17489;DHT22;8861;52.644;4.734;2022-07-17T01:17:32;13.90;99.90
17489;DHT22;8861;52.644;4.734;2022-07-17T01:20:01;13.90;99.90
17489;DHT22;8861;52.644;4.734;2022-07-17T01:22:29;13.90;99.90
17489;DHT22;8861;52.644;4.734;2022-07-17T01:24:56;13.90;99.90
17489;DHT22;8861;52.644;4.734;2022-07-17T01:27:23;13.90;99.90
17489;DHT22;8861;52.644;4.734;2022-07-17T01:29:50;13.90;99.90
17489;DHT22;8861;52.644;4.734;2022-07-17T01:32:17;13.90;99.90
17489;DHT22;8861;52.644;4.734;2022-07-17T01:34:44;13.90;99.90
17489;DHT22;8861;52.644;4.734;2022-07-17T01:37:10;13.90;99.90
17489;DHT22;8861;52.644;4.734;2022-07-17T01:39:39;13.90;99.90
17489;DHT22;8861;52.644;4.734;2022-07-17T01:42:22;13.90;99.90
17489;DHT22;8861;52.644;4.734;2022-07-17T01:44:49;13.90;99.90
17489;DHT22;8861;52.644;4.734;2022-07-17T01:47:17;13.90;99.90
17489;DHT22;8861;52.644;4.734;2022-07-17T01:49:45;13.90;99.90
17489;DHT22;8861;52.644;4.734;2022-07-17T01:52:11;13.90;99.90
17489;DHT22;8861;52.644;4.734;2022-07-17T01:54:40;13.90;99.90
17489;DHT22;8861;52.644;4.734;2022-07-17T01:57:08;13.90;99.90
17489;DHT22;8861;52.644;4.734;2022-07-17T01:59:36;13.90;99.90
17489;DHT22;8861;52.644;4.734;2022-07-17T02:02:03;13.90;99.90
17489;DHT22;8861;52.644;4.734;2022-07-17T02:04:31;13.80;99.90
17489;DHT22;8861;52.644;4.734;2022-07-17T02:06:58;13.80;99.90
17489;DHT22;8861;52.644;4.734;2022-07-17T02:09:25;13.80;99.90
17489;DHT22;8861;52.644;4.734;2022-07-17T02:11:53;13.80;99.90
17489;DHT22;8861;52.644;4.734;2022-07-17T02:14:20;13.80;99.90
17489;DHT22;8861;52.644;4.734;2022-07-17T02:16:47;13.80;99.90
17489;DHT22;8861;52.644;4.734;2022-07-17T02:19:14;13.90;99.90
17489;DHT22;8861;52.644;4.734;2022-07-17T02:21:41;13.90;99.90
17489;DHT22;8861;52.644;4.734;2022-07-17T02:24:08;13.90;99.90
17489;DHT22;8861;52.644;4.734;2022-07-17T02:26:35;14.00;99.90
17489;DHT22;8861;52.644;4.734;2022-07-17T02:29:03;14.10;99.90
17489;DHT22;8861;52.644;4.734;2022-07-17T02:31:30;14.10;99.90
17489;DHT22;8861;52.644;4.734;2022-07-17T02:33:57;14.20;99.90
17489;DHT22;8861;52.644;4.734;2022-07-17T02:36:24;14.20;99.90
17489;DHT22;8861;52.644;4.734;2022-07-17T02:38:51;14.30;99.90
17489;DHT22;8861;52.644;4.734;2022-07-17T02:41:18;14.30;99.90
17489;DHT22;8861;52.644;4.734;2022-07-17T02:43:45;14.30;99.90
17489;DHT22;8861;52.644;4.734;2022-07-17T02:46:13;14.30;99.90
17489;DHT22;8861;52.644;4.734;2022-07-17T02:48:40;14.40;99.90
17489;DHT22;8861;52.644;4.734;2022-07-17T02:51:07;14.40;99.90
17489;DHT22;8861;52.644;4.734;2022-07-17T02:53:34;14.50;99.90
17489;DHT22;8861;52.644;4.734;2022-07-17T02:56:01;14.50;99.90
17489;DHT22;8861;52.644;4.734;2022-07-17T02:58:28;14.50;99.90
17489;DHT22;8861;52.644;4.734;2022-07-17T03:00:55;14.50;99.90
17489;DHT22;8861;52.644;4.734;2022-07-17T03:03:23;14.50;99.90
17489;DHT22;8861;52.644;4.734;2022-07-17T03:05:50;14.50;99.90
17489;DHT22;8861;52.644;4.734;2022-07-17T03:08:17;14.50;99.90
17489;DHT22;8861;52.644;4.734;2022-07-17T03:10:44;14.50;99.90
17489;DHT22;8861;52.644;4.734;2022-07-17T03:13:11;14.50;99.90
17489;DHT22;8861;52.644;4.734;2022-07-17T03:15:37;14.50;99.90
17489;DHT22;8861;52.644;4.734;2022-07-17T03:18:04;14.50;99.90
17489;DHT22;8861;52.644;4.734;2022-07-17T03:20:33;14.50;99.90
17489;DHT22;8861;52.644;4.734;2022-07-17T03:23:00;14.50;99.90
17489;DHT22;8861;52.644;4.734;2022-07-17T03:25:26;14.50;99.90
17489;DHT22;8861;52.644;4.734;2022-07-17T03:27:53;14.50;99.90
17489;DHT22;8861;52.644;4.734;2022-07-17T03:30:20;14.40;99.90
17489;DHT22;8861;52.644;4.734;2022-07-17T03:32:47;14.40;99.90
17489;DHT22;8861;52.644;4.734;2022-07-17T03:35:14;14.30;99.90
17489;DHT22;8861;52.644;4.734;2022-07-17T03:37:43;14.20;99.90
17489;DHT22;8861;52.644;4.734;2022-07-17T03:40:10;14.10;99.90
17489;DHT22;8861;52.644;4.734;2022-07-17T03:42:37;14.00;99.90
17489;DHT22;8861;52.644;4.734;2022-07-17T03:45:05;13.90;99.90
17489;DHT22;8861;52.644;4.734;2022-07-17T03:47:33;13.90;99.90
17489;DHT22;8861;52.644;4.734;2022-07-17T03:50:00;13.80;99.90
17489;DHT22;8861;52.644;4.734;2022-07-17T03:52:27;13.70;99.90
17489;DHT22;8861;52.644;4.734;2022-07-17T03:54:55;13.70;99.90
17489;DHT22;8861;52.644;4.734;2022-07-17T03:57:22;13.60;99.90
17489;DHT22;8861;52.644;4.734;2022-07-17T03:59:49;13.60;99.90
17489;DHT22;8861;52.644;4.734;2022-07-17T04:02:16;13.60;99.90
17489;DHT22;8861;52.644;4.734;2022-07-17T04:04:43;13.60;99.90
17489;DHT22;8861;52.644;4.734;2022-07-17T04:07:10;13.60;99.90
17489;DHT22;8861;52.644;4.734;2022-07-17T04:09:53;13.60;99.90
17489;DHT22;8861;52.644;4.734;2022-07-17T04:12:21;13.70;99.90
17489;DHT22;8861;52.644;4.734;2022-07-17T04:14:48;13.70;99.90
17489;DHT22;8861;52.644;4.734;2022-07-17T04:17:16;13.70;99.90
17489;DHT22;8861;52.644;4.734;2022-07-17T04:19:43;13.80;99.90
17489;DHT22;8861;52.644;4.734;2022-07-17T04:22:10;13.90;99.90
17489;DHT22;8861;52.644;4.734;2022-07-17T04:24:37;14.00;99.90
17489;DHT22;8861;52.644;4.734;2022-07-17T04:27:04;14.20;99.90
17489;DHT22;8861;52.644;4.734;2022-07-17T04:29:33;14.30;99.90
17489;DHT22;8861;52.644;4.734;2022-07-17T04:32:00;14.40;99.90
17489;DHT22;8861;52.644;4.734;2022-07-17T04:34:27;14.50;99.90
17489;DHT22;8861;52.644;4.734;2022-07-17T04:36:55;14.60;99.90
17489;DHT22;8861;52.644;4.734;2022-07-17T04:39:22;14.70;99.90
17489;DHT22;8861;52.644;4.734;2022-07-17T04:41:50;14.80;99.90
17489;DHT22;8861;52.644;4.734;2022-07-17T04:44:17;14.90;99.90
17489;DHT22;8861;52.644;4.734;2022-07-17T04:46:45;14.90;99.90
17489;DHT22;8861;52.644;4.734;2022-07-17T04:49:12;15.00;99.90
17489;DHT22;8861;52.644;4.734;2022-07-17T04:51:39;15.00;99.90
17489;DHT22;8861;52.644;4.734;2022-07-17T04:54:06;15.10;99.90
17489;DHT22;8861;52.644;4.734;2022-07-17T04:56:33;15.20;99.90
17489;DHT22;8861;52.644;4.734;2022-07-17T04:59:00;15.30;99.90
17489;DHT22;8861;52.644;4.734;2022-07-17T05:01:27;15.40;99.90
17489;DHT22;8861;52.644;4.734;2022-07-17T05:03:55;15.40;99.90
17489;DHT22;8861;52.644;4.734;2022-07-17T05:06:22;15.50;99.90
17489;DHT22;8861;52.644;4.734;2022-07-17T05:08:49;15.50;99.90
17489;DHT22;8861;52.644;4.734;2022-07-17T05:11:16;15.40;99.90
17489;DHT22;8861;52.644;4.734;2022-07-17T05:13:42;15.30;99.90
17489;DHT22;8861;52.644;4.734;2022-07-17T05:16:09;15.30;99.90
17489;DHT22;8861;52.644;4.734;2022-07-17T05:18:36;15.20;99.90
17489;DHT22;8861;52.644;4.734;2022-07-17T05:21:04;15.10;99.90
17489;DHT22;8861;52.644;4.734;2022-07-17T05:23:31;15.00;99.90
17489;DHT22;8861;52.644;4.734;2022-07-17T05:25:58;15.00;99.90
17489;DHT22;8861;52.644;4.734;2022-07-17T05:28:25;14.90;99.90
17489;DHT22;8861;52.644;4.734;2022-07-17T05:30:52;14.90;99.90
17489;DHT22;8861;52.644;4.734;2022-07-17T05:33:19;14.90;99.90
17489;DHT22;8861;52.644;4.734;2022-07-17T05:35:46;14.90;99.90
17489;DHT22;8861;52.644;4.734;2022-07-17T05:38:14;15.00;99.90
17489;DHT22;8861;52.644;4.734;2022-07-17T05:40:41;15.00;99.90
17489;DHT22;8861;52.644;4.734;2022-07-17T05:43:08;15.10;99.90
17489;DHT22;8861;52.644;4.734;2022-07-17T05:45:36;15.20;99.90
17489;DHT22;8861;52.644;4.734;2022-07-17T05:48:04;15.20;99.90
17489;DHT22;8861;52.644;4.734;2022-07-17T05:50:31;15.30;99.90
17489;DHT22;8861;52.644;4.734;2022-07-17T05:52:58;15.40;99.90
17489;DHT22;8861;52.644;4.734;2022-07-17T05:55:27;15.50;99.90
17489;DHT22;8861;52.644;4.734;2022-07-17T05:57:53;15.50;99.90
17489;DHT22;8861;52.644;4.734;2022-07-17T06:00:20;15.60;99.90
17489;DHT22;8861;52.644;4.734;2022-07-17T06:02:47;15.60;99.90
17489;DHT22;8861;52.644;4.734;2022-07-17T06:05:14;15.70;99.90
17489;DHT22;8861;52.644;4.734;2022-07-17T06:07:41;15.80;99.90
17489;DHT22;8861;52.644;4.734;2022-07-17T06:10:09;15.80;99.90
17489;DHT22;8861;52.644;4.734;2022-07-17T06:12:37;15.90;99.90
17489;DHT22;8861;52.644;4.734;2022-07-17T06:15:05;15.90;99.90
17489;DHT22;8861;52.644;4.734;2022-07-17T06:17:32;16.00;99.90
17489;DHT22;8861;52.644;4.734;2022-07-17T06:19:58;16.00;99.90
17489;DHT22;8861;52.644;4.734;2022-07-17T06:22:25;16.00;99.90
17489;DHT22;8861;52.644;4.734;2022-07-17T06:24:52;16.10;99.90
17489;DHT22;8861;52.644;4.734;2022-07-17T06:27:19;16.10;99.90
17489;DHT22;8861;52.644;4.734;2022-07-17T06:29:47;16.10;99.90
17489;DHT22;8861;52.644;4.734;2022-07-17T06:32:14;16.10;99.90
17489;DHT22;8861;52.644;4.734;2022-07-17T06:34:42;16.20;99.90
17489;DHT22;8861;52.644;4.734;2022-07-17T06:37:08;16.20;99.90
17489;DHT22;8861;52.644;4.734;2022-07-17T06:39:36;16.20;99.90
17489;DHT22;8861;52.644;4.734;2022-07-17T06:42:03;16.20;99.90
17489;DHT22;8861;52.644;4.734;2022-07-17T06:44:30;16.30;99.90
17489;DHT22;8861;52.644;4.734;2022-07-17T06:46:58;16.30;99.90
17489;DHT22;8861;52.644;4.734;2022-07-17T06:49:25;16.40;99.90
17489;DHT22;8861;52.644;4.734;2022-07-17T06:51:52;16.40;99.90
17489;DHT22;8861;52.644;4.734;2022-07-17T06:54:19;16.40;99.90
17489;DHT22;8861;52.644;4.734;2022-07-17T06:56:48;16.50;99.90
17489;DHT22;8861;52.644;4.734;2022-07-17T06:59:16;16.50;99.90
17489;DHT22;8861;52.644;4.734;2022-07-17T07:01:42;16.60;99.90
17489;DHT22;8861;52.644;4.734;2022-07-17T07:04:11;16.60;99.90
17489;DHT22;8861;52.644;4.734;2022-07-17T07:06:38;16.60;99.90
17489;DHT22;8861;52.644;4.734;2022-07-17T07:09:04;16.70;99.90
17489;DHT22;8861;52.644;4.734;2022-07-17T07:11:31;16.70;99.90
17489;DHT22;8861;52.644;4.734;2022-07-17T07:13:58;16.70;99.90
17489;DHT22;8861;52.644;4.734;2022-07-17T07:16:25;16.70;99.90
17489;DHT22;8861;52.644;4.734;2022-07-17T07:18:52;16.80;99.90
17489;DHT22;8861;52.644;4.734;2022-07-17T07:21:20;16.80;99.90
17489;DHT22;8861;52.644;4.734;2022-07-17T07:23:48;16.90;99.90
17489;DHT22;8861;52.644;4.734;2022-07-17T07:26:15;16.90;99.90
17489;DHT22;8861;52.644;4.734;2022-07-17T07:28:42;17.00;99.90
17489;DHT22;8861;52.644;4.734;2022-07-17T07:31:09;17.00;99.90
17489;DHT22;8861;52.644;4.734;2022-07-17T07:33:37;17.10;99.90
17489;DHT22;8861;52.644;4.734;2022-07-17T07:36:04;17.10;99.90
17489;DHT22;8861;52.644;4.734;2022-07-17T07:38:32;17.10;99.90
17489;DHT22;8861;52.644;4.734;2022-07-17T07:40:59;17.20;99.90
17489;DHT22;8861;52.644;4.734;2022-07-17T07:43:26;17.20;99.90
17489;DHT22;8861;52.644;4.734;2022-07-17T07:45:53;17.30;99.90
17489;DHT22;8861;52.644;4.734;2022-07-17T07:48:20;17.40;99.90
17489;DHT22;8861;52.644;4.734;2022-07-17T07:50:47;17.40;99.90
17489;DHT22;8861;52.644;4.734;2022-07-17T07:53:14;17.40;99.90
17489;DHT22;8861;52.644;4.734;2022-07-17T07:55:42;17.50;99.90
17489;DHT22;8861;52.644;4.734;2022-07-17T07:58:11;17.60;99.90
17489;DHT22;8861;52.644;4.734;2022-07-17T08:00:39;17.60;99.90
17489;DHT22;8861;52.644;4.734;2022-07-17T08:03:07;17.70;99.90
17489;DHT22;8861;52.644;4.734;2022-07-17T08:05:34;17.70;99.90
17489;DHT22;8861;52.644;4.734;2022-07-17T08:08:01;17.80;99.90
17489;DHT22;8861;52.644;4.734;2022-07-17T08:10:29;17.80;99.90
17489;DHT22;8861;52.644;4.734;2022-07-17T08:12:57;17.80;99.90
17489;DHT22;8861;52.644;4.734;2022-07-17T08:15:24;17.90;99.90
17489;DHT22;8861;52.644;4.734;2022-07-17T08:17:52;18.00;99.90
17489;DHT22;8861;52.644;4.734;2022-07-17T08:20:20;18.00;99.90
17489;DHT22;8861;52.644;4.734;2022-07-17T08:22:48;18.10;99.90
17489;DHT22;8861;52.644;4.734;2022-07-17T08:25:15;18.10;99.90
17489;DHT22;8861;52.644;4.734;2022-07-17T08:27:43;18.20;99.90
17489;DHT22;8861;52.644;4.734;2022-07-17T08:30:13;18.20;99.90
17489;DHT22;8861;52.644;4.734;2022-07-17T08:32:40;18.30;99.90
17489;DHT22;8861;52.644;4.734;2022-07-17T08:35:08;18.30;99.90
17489;DHT22;8861;52.644;4.734;2022-07-17T08:37:46;18.40;99.90
17489;DHT22;8861;52.644;4.734;2022-07-17T08:40:20;18.50;99.90
17489;DHT22;8861;52.644;4.734;2022-07-17T08:42:47;18.50;99.90
17489;DHT22;8861;52.644;4.734;2022-07-17T08:45:16;18.60;99.90
17489;DHT22;8861;52.644;4.734;2022-07-17T08:47:43;18.70;99.90
17489;DHT22;8861;52.644;4.734;2022-07-17T08:50:12;18.80;99.90
17489;DHT22;8861;52.644;4.734;2022-07-17T08:52:41;18.80;99.90
17489;DHT22;8861;52.644;4.734;2022-07-17T08:55:10;18.80;99.90
17489;DHT22;8861;52.644;4.734;2022-07-17T08:57:38;18.90;99.90
17489;DHT22;8861;52.644;4.734;2022-07-17T09:00:07;19.00;99.90
17489;DHT22;8861;52.644;4.734;2022-07-17T09:02:37;19.10;99.90
17489;DHT22;8861;52.644;4.734;2022-07-17T09:05:06;19.10;99.90
17489;DHT22;8861;52.644;4.734;2022-07-17T09:07:33;19.20;99.90
17489;DHT22;8861;52.644;4.734;2022-07-17T09:10:00;19.20;99.90
17489;DHT22;8861;52.644;4.734;2022-07-17T09:12:29;19.30;99.90
17489;DHT22;8861;52.644;4.734;2022-07-17T09:14:56;19.40;99.90
17489;DHT22;8861;52.644;4.734;2022-07-17T09:17:23;19.40;99.90
17489;DHT22;8861;52.644;4.734;2022-07-17T09:19:54;19.50;99.90
17489;DHT22;8861;52.644;4.734;2022-07-17T09:22:22;19.50;99.90
17489;DHT22;8861;52.644;4.734;2022-07-17T09:24:51;19.60;99.90
17489;DHT22;8861;52.644;4.734;2022-07-17T09:27:29;19.70;99.90
17489;DHT22;8861;52.644;4.734;2022-07-17T09:29:58;19.70;99.90
17489;DHT22;8861;52.644;4.734;2022-07-17T09:32:27;19.70;99.90
17489;DHT22;8861;52.644;4.734;2022-07-17T09:34:57;19.80;99.90
17489;DHT22;8861;52.644;4.734;2022-07-17T09:37:25;19.80;99.90
17489;DHT22;8861;52.644;4.734;2022-07-17T09:39:52;19.90;99.90
17489;DHT22;8861;52.644;4.734;2022-07-17T09:42:23;20.00;99.90
17489;DHT22;8861;52.644;4.734;2022-07-17T09:44:57;20.10;99.90
17489;DHT22;8861;52.644;4.734;2022-07-17T09:47:24;20.10;99.90
17489;DHT22;8861;52.644;4.734;2022-07-17T09:49:53;20.20;99.90
17489;DHT22;8861;52.644;4.734;2022-07-17T09:52:23;20.40;99.90
17489;DHT22;8861;52.644;4.734;2022-07-17T09:54:52;20.50;99.90
17489;DHT22;8861;52.644;4.734;2022-07-17T09:57:20;20.50;99.90
17489;DHT22;8861;52.644;4.734;2022-07-17T09:59:48;20.50;99.90
17489;DHT22;8861;52.644;4.734;2022-07-17T10:02:15;20.60;99.90
17489;DHT22;8861;52.644;4.734;2022-07-17T10:04:43;20.60;99.90
17489;DHT22;8861;52.644;4.734;2022-07-17T10:07:10;20.70;99.90
17489;DHT22;8861;52.644;4.734;2022-07-17T10:09:39;20.80;99.90
17489;DHT22;8861;52.644;4.734;2022-07-17T10:12:06;20.90;99.90
17489;DHT22;8861;52.644;4.734;2022-07-17T10:14:34;21.00;99.90
17489;DHT22;8861;52.644;4.734;2022-07-17T10:17:08;21.00;99.90
17489;DHT22;8861;52.644;4.734;2022-07-17T10:19:46;21.10;99.90
17489;DHT22;8861;52.644;4.734;2022-07-17T10:22:13;21.20;99.90
17489;DHT22;8861;52.644;4.734;2022-07-17T10:24:47;21.30;99.90
17489;DHT22;8861;52.644;4.734;2022-07-17T10:27:19;21.50;99.90
17489;DHT22;8861;52.644;4.734;2022-07-17T10:29:46;21.60;99.90
17489;DHT22;8861;52.644;4.734;2022-07-17T10:32:15;21.80;99.90
17489;DHT22;8861;52.644;4.734;2022-07-17T10:34:44;21.90;99.90
17489;DHT22;8861;52.644;4.734;2022-07-17T10:37:20;22.00;99.90
17489;DHT22;8861;52.644;4.734;2022-07-17T10:40:01;22.20;99.90
17489;DHT22;8861;52.644;4.734;2022-07-17T10:42:44;22.20;99.90
17489;DHT22;8861;52.644;4.734;2022-07-17T10:45:13;22.30;99.90
17489;DHT22;8861;52.644;4.734;2022-07-17T10:47:52;22.30;99.90
17489;DHT22;8861;52.644;4.734;2022-07-17T10:50:20;22.40;99.90
17489;DHT22;8861;52.644;4.734;2022-07-17T10:53:04;22.40;99.90
17489;DHT22;8861;52.644;4.734;2022-07-17T10:55:33;22.40;99.90
17489;DHT22;8861;52.644;4.734;2022-07-17T10:58:02;22.60;99.90
17489;DHT22;8861;52.644;4.734;2022-07-17T11:00:29;22.70;99.90
17489;DHT22;8861;52.644;4.734;2022-07-17T11:02:56;22.80;99.90
17489;DHT22;8861;52.644;4.734;2022-07-17T11:05:34;22.90;99.90
17489;DHT22;8861;52.644;4.734;2022-07-17T11:08:01;23.00;99.90
17489;DHT22;8861;52.644;4.734;2022-07-17T11:10:36;23.00;99.90
17489;DHT22;8861;52.644;4.734;2022-07-17T11:13:08;23.00;99.90
17489;DHT22;8861;52.644;4.734;2022-07-17T11:15:40;23.10;99.90
17489;DHT22;8861;52.644;4.734;2022-07-17T11:18:11;23.20;99.90
17489;DHT22;8861;52.644;4.734;2022-07-17T11:20:47;23.20;99.90
17489;DHT22;8861;52.644;4.734;2022-07-17T11:23:14;23.20;99.90
17489;DHT22;8861;52.644;4.734;2022-07-17T11:25:53;23.30;99.90
17489;DHT22;8861;52.644;4.734;2022-07-17T11:28:32;23.30;99.90
17489;DHT22;8861;52.644;4.734;2022-07-17T11:31:00;23.20;99.90
17489;DHT22;8861;52.644;4.734;2022-07-17T11:33:27;23.20;99.90
17489;DHT22;8861;52.644;4.734;2022-07-17T11:35:53;23.20;99.90
17489;DHT22;8861;52.644;4.734;2022-07-17T11:38:25;23.30;99.90
17489;DHT22;8861;52.644;4.734;2022-07-17T11:40:54;23.40;99.90
17489;DHT22;8861;52.644;4.734;2022-07-17T11:43:21;23.40;99.90
17489;DHT22;8861;52.644;4.734;2022-07-17T11:45:48;23.50;99.90
17489;DHT22;8861;52.644;4.734;2022-07-17T11:48:15;23.50;99.90
17489;DHT22;8861;52.644;4.734;2022-07-17T11:50:53;23.60;99.90
17489;DHT22;8861;52.644;4.734;2022-07-17T11:53:31;23.70;99.90
17489;DHT22;8861;52.644;4.734;2022-07-17T11:56:00;23.70;99.90
17489;DHT22;8861;52.644;4.734;2022-07-17T11:58:28;23.70;99.90
17489;DHT22;8861;52.644;4.734;2022-07-17T12:01:02;23.80;99.90
17489;DHT22;8861;52.644;4.734;2022-07-17T12:03:30;23.90;99.90
17489;DHT22;8861;52.644;4.734;2022-07-17T12:05:57;24.40;99.90
17489;DHT22;8861;52.644;4.734;2022-07-17T12:08:24;24.80;99.90
17489;DHT22;8861;52.644;4.734;2022-07-17T12:11:02;25.10;99.90
17489;DHT22;8861;52.644;4.734;2022-07-17T12:13:41;25.90;99.90
17489;DHT22;8861;52.644;4.734;2022-07-17T12:16:23;26.80;99.90
17489;DHT22;8861;52.644;4.734;2022-07-17T12:19:02;27.80;99.90
17489;DHT22;8861;52.644;4.734;2022-07-17T12:21:31;28.80;99.90
17489;DHT22;8861;52.644;4.734;2022-07-17T12:24:02;29.70;99.90
17489;DHT22;8861;52.644;4.734;2022-07-17T12:26:31;30.40;99.90
17489;DHT22;8861;52.644;4.734;2022-07-17T12:28:58;31.00;99.90
17489;DHT22;8861;52.644;4.734;2022-07-17T12:31:25;31.20;99.90
17489;DHT22;8861;52.644;4.734;2022-07-17T12:33:54;31.30;99.90
17489;DHT22;8861;52.644;4.734;2022-07-17T12:36:22;31.20;99.90
17489;DHT22;8861;52.644;4.734;2022-07-17T12:38:49;31.30;99.90
17489;DHT22;8861;52.644;4.734;2022-07-17T12:41:16;31.40;99.90
17489;DHT22;8861;52.644;4.734;2022-07-17T12:43:45;31.30;99.90
17489;DHT22;8861;52.644;4.734;2022-07-17T12:46:12;31.10;99.90
17489;DHT22;8861;52.644;4.734;2022-07-17T12:48:39;30.70;99.90
17489;DHT22;8861;52.644;4.734;2022-07-17T12:51:09;30.20;99.90
17489;DHT22;8861;52.644;4.734;2022-07-17T12:53:39;29.60;99.90
17489;DHT22;8861;52.644;4.734;2022-07-17T12:56:07;29.20;99.90
17489;DHT22;8861;52.644;4.734;2022-07-17T12:58:34;28.70;99.90
17489;DHT22;8861;52.644;4.734;2022-07-17T13:01:03;28.10;99.90
17489;DHT22;8861;52.644;4.734;2022-07-17T13:03:31;27.50;99.90
17489;DHT22;8861;52.644;4.734;2022-07-17T13:05:58;27.00;99.90
17489;DHT22;8861;52.644;4.734;2022-07-17T13:08:26;26.80;99.90
17489;DHT22;8861;52.644;4.734;2022-07-17T13:10:53;26.60;99.90
17489;DHT22;8861;52.644;4.734;2022-07-17T13:13:20;26.60;99.90
17489;DHT22;8861;52.644;4.734;2022-07-17T13:15:47;26.50;99.90
17489;DHT22;8861;52.644;4.734;2022-07-17T13:18:15;26.50;99.90
17489;DHT22;8861;52.644;4.734;2022-07-17T13:20:42;26.50;99.90
17489;DHT22;8861;52.644;4.734;2022-07-17T13:23:09;26.50;99.90
17489;DHT22;8861;52.644;4.734;2022-07-17T13:25:36;26.50;99.90
17489;DHT22;8861;52.644;4.734;2022-07-17T13:28:03;26.50;99.90
17489;DHT22;8861;52.644;4.734;2022-07-17T13:30:30;26.40;99.90
17489;DHT22;8861;52.644;4.734;2022-07-17T13:32:58;26.40;99.90
17489;DHT22;8861;52.644;4.734;2022-07-17T13:35:27;26.30;99.90
17489;DHT22;8861;52.644;4.734;2022-07-17T13:37:54;26.40;99.90
17489;DHT22;8861;52.644;4.734;2022-07-17T13:40:22;26.50;99.90
17489;DHT22;8861;52.644;4.734;2022-07-17T13:42:50;26.50;99.90
17489;DHT22;8861;52.644;4.734;2022-07-17T13:45:17;26.40;99.90
17489;DHT22;8861;52.644;4.734;2022-07-17T13:47:44;26.40;99.90
17489;DHT22;8861;52.644;4.734;2022-07-17T13:50:11;26.30;99.90
17489;DHT22;8861;52.644;4.734;2022-07-17T13:52:39;26.40;99.90
17489;DHT22;8861;52.644;4.734;2022-07-17T13:55:07;26.50;99.90
17489;DHT22;8861;52.644;4.734;2022-07-17T13:57:34;26.60;99.90
17489;DHT22;8861;52.644;4.734;2022-07-17T14:00:02;26.70;99.90
17489;DHT22;8861;52.644;4.734;2022-07-17T14:02:29;27.00;99.90
17489;DHT22;8861;52.644;4.734;2022-07-17T14:04:56;27.40;99.90
17489;DHT22;8861;52.644;4.734;2022-07-17T14:07:23;28.00;99.90
17489;DHT22;8861;52.644;4.734;2022-07-17T14:09:51;28.30;99.90
17489;DHT22;8861;52.644;4.734;2022-07-17T14:12:18;28.50;99.90
17489;DHT22;8861;52.644;4.734;2022-07-17T14:14:45;28.40;99.90
17489;DHT22;8861;52.644;4.734;2022-07-17T14:17:11;28.20;99.90
17489;DHT22;8861;52.644;4.734;2022-07-17T14:19:38;28.00;99.90
17489;DHT22;8861;52.644;4.734;2022-07-17T14:22:05;28.10;99.90
17489;DHT22;8861;52.644;4.734;2022-07-17T14:24:32;28.30;99.90
17489;DHT22;8861;52.644;4.734;2022-07-17T14:27:00;28.90;99.90
17489;DHT22;8861;52.644;4.734;2022-07-17T14:29:27;29.50;99.90
17489;DHT22;8861;52.644;4.734;2022-07-17T14:31:54;29.80;99.90
17489;DHT22;8861;52.644;4.734;2022-07-17T14:34:21;30.20;99.90
17489;DHT22;8861;52.644;4.734;2022-07-17T14:36:48;30.60;99.90
17489;DHT22;8861;52.644;4.734;2022-07-17T14:39:16;30.90;99.90
17489;DHT22;8861;52.644;4.734;2022-07-17T14:41:43;31.20;99.90
17489;DHT22;8861;52.644;4.734;2022-07-17T14:44:13;31.70;99.90
17489;DHT22;8861;52.644;4.734;2022-07-17T14:46:40;32.20;99.90
17489;DHT22;8861;52.644;4.734;2022-07-17T14:49:07;33.00;99.90
17489;DHT22;8861;52.644;4.734;2022-07-17T14:51:34;33.80;99.90
17489;DHT22;8861;52.644;4.734;2022-07-17T14:54:01;34.40;99.90
17489;DHT22;8861;52.644;4.734;2022-07-17T14:56:28;34.60;99.90
17489;DHT22;8861;52.644;4.734;2022-07-17T14:58:55;34.50;99.50
17489;DHT22;8861;52.644;4.734;2022-07-17T15:01:23;34.50;99.20
17489;DHT22;8861;52.644;4.734;2022-07-17T15:03:50;34.70;98.70
17489;DHT22;8861;52.644;4.734;2022-07-17T15:06:17;34.40;97.50
17489;DHT22;8861;52.644;4.734;2022-07-17T15:08:44;33.90;97.50
17489;DHT22;8861;52.644;4.734;2022-07-17T15:11:11;33.70;97.70
17489;DHT22;8861;52.644;4.734;2022-07-17T15:13:38;33.30;97.80
17489;DHT22;8861;52.644;4.734;2022-07-17T15:16:05;33.00;98.00
17489;DHT22;8861;52.644;4.734;2022-07-17T15:18:34;32.60;98.70
17489;DHT22;8861;52.644;4.734;2022-07-17T15:21:01;32.40;99.30
17489;DHT22;8861;52.644;4.734;2022-07-17T15:23:28;32.20;99.70
17489;DHT22;8861;52.644;4.734;2022-07-17T15:25:55;32.20;99.80
17489;DHT22;8861;52.644;4.734;2022-07-17T15:28:21;32.30;99.50
17489;DHT22;8861;52.644;4.734;2022-07-17T15:30:48;32.40;99.40
17489;DHT22;8861;52.644;4.734;2022-07-17T15:33:15;32.30;99.20
17489;DHT22;8861;52.644;4.734;2022-07-17T15:35:43;32.10;99.50
17489;DHT22;8861;52.644;4.734;2022-07-17T15:38:10;31.80;99.70
17489;DHT22;8861;52.644;4.734;2022-07-17T15:40:37;31.40;99.90
17489;DHT22;8861;52.644;4.734;2022-07-17T15:43:04;31.00;99.90
17489;DHT22;8861;52.644;4.734;2022-07-17T15:45:31;30.70;99.90
17489;DHT22;8861;52.644;4.734;2022-07-17T15:47:58;30.20;99.90
17489;DHT22;8861;52.644;4.734;2022-07-17T15:50:25;29.90;99.90